Time;durP1;ratioP1;P1;durP2;ratioP2;P2;SDS_P1;SDS_P2;PMS_P1;PMS_P2;Temp;Humidity;BMP_temperature;BMP_pressure;BME280_temperature;BME280_humidity;BME280_pressure;Samples;Min_cycle;Max_cycle;Signal;HPM_P1;HPM_P2
2022/10/15 00:00:33;;;;;;;98.93;21.75;;;12.80;99.90;;;;;;5052909;28;20033;-82
2022/10/15 00:02:59;;;;;;;50.28;37.15;;;12.80;99.90;;;;;;5054315;28;20040;-81
2022/10/15 00:05:24;;;;;;;56.10;39.70;;;12.80;99.90;;;;;;5054620;28;20060;-81
2022/10/15 00:07:50;;;;;;;39.63;20.48;;;12.80;99.90;;;;;;5071063;28;20044;-81
2022/10/15 00:10:16;;;;;;;31.42;19.48;;;12.80;99.90;;;;;;5054543;28;20045;-81
2022/10/15 00:12:42;;;;;;;46.47;21.50;;;12.80;99.90;;;;;;5070569;28;20036;-81
2022/10/15 00:15:09;;;;;;;121.50;25.13;;;12.70;99.90;;;;;;5071427;28;20143;-81
2022/10/15 00:17:35;;;;;;;43.30;22.92;;;12.70;99.90;;;;;;5054437;28;20508;-81
2022/10/15 00:20:04;;;;;;;77.38;44.22;;;12.70;99.90;;;;;;5070758;28;20040;-81
2022/10/15 00:22:29;;;;;;;72.10;45.50;;;12.80;99.90;;;;;;5070634;28;20081;-81
2022/10/15 00:24:55;;;;;;;66.15;23.35;;;12.80;99.90;;;;;;5070840;28;20127;-81
2022/10/15 00:27:20;;;;;;;70.10;24.20;;;12.80;99.90;;;;;;5071065;28;20123;-81
2022/10/15 00:29:46;;;;;;;56.22;24.52;;;12.80;99.90;;;;;;5071009;28;20048;-81
2022/10/15 00:32:11;;;;;;;38.38;23.45;;;12.70;99.90;;;;;;5054155;28;20044;-82
2022/10/15 00:34:37;;;;;;;46.90;24.52;;;12.70;99.90;;;;;;5070812;28;20138;-81
2022/10/15 00:37:03;;;;;;;70.55;49.17;;;12.70;99.90;;;;;;5070589;28;20041;-82
2022/10/15 00:39:29;;;;;;;47.72;25.48;;;12.80;99.90;;;;;;5071899;28;20127;-82
2022/10/15 00:41:54;;;;;;;41.08;22.73;;;12.80;99.90;;;;;;5053100;28;20158;-82
2022/10/15 00:44:20;;;;;;;45.35;27.08;;;12.70;99.90;;;;;;5070649;28;20115;-81
2022/10/15 00:46:47;;;;;;;41.08;24.30;;;12.70;99.90;;;;;;5070555;28;20040;-81
2022/10/15 00:49:27;;;;;;;49.42;28.13;;;12.70;99.90;;;;;;5053803;28;20047;-82
2022/10/15 00:52:10;;;;;;;45.95;24.95;;;12.70;99.90;;;;;;5070544;28;20044;-81
2022/10/15 00:54:41;;;;;;;;;;;12.70;99.90;;;;;;5071232;28;20040;-81
2022/10/15 00:57:08;;;;;;;59.70;25.20;;;12.60;99.90;;;;;;5053783;28;20262;-82
2022/10/15 00:59:38;;;;;;;50.38;28.30;;;12.60;99.90;;;;;;5053576;28;20032;-82
2022/10/15 01:02:06;;;;;;;49.67;26.17;;;12.60;99.90;;;;;;5053442;28;20432;-82
2022/10/15 01:04:33;;;;;;;51.63;27.52;;;12.60;99.90;;;;;;5053936;28;20037;-82
2022/10/15 01:06:58;;;;;;;42.25;26.17;;;12.60;99.90;;;;;;5053687;28;20037;-82
2022/10/15 01:09:25;;;;;;;60.50;28.63;;;12.60;99.90;;;;;;5053522;28;20128;-82
2022/10/15 01:11:53;;;;;;;50.83;25.75;;;12.60;99.90;;;;;;5069989;28;20567;-82
2022/10/15 01:14:25;;;;;;;45.42;25.85;;;12.60;99.90;;;;;;5070330;28;20123;-82
2022/10/15 01:17:03;;;;;;;45.88;25.88;;;12.60;99.90;;;;;;5053344;28;20044;-82
2022/10/15 01:19:59;;;;;;;53.05;27.05;;;12.60;99.90;;;;;;5070131;28;20097;-82
2022/10/15 01:22:55;;;;;;;50.10;24.98;;;12.60;99.90;;;;;;5070131;28;20525;-82
2022/10/15 01:25:47;;;;;;;68.05;26.15;;;12.60;99.90;;;;;;5070193;28;20083;-81
2022/10/15 01:28:58;;;;;;;81.95;27.50;;;12.60;99.90;;;;;;5053714;28;20083;-82
2022/10/15 01:31:36;;;;;;;117.22;56.65;;;12.50;99.90;;;;;;5031649;28;20044;-82
2022/10/15 01:34:09;;;;;;;73.30;27.88;;;12.60;99.90;;;;;;5053561;28;20064;-81
2022/10/15 01:37:18;;;;;;;41.70;25.15;;;12.60;99.90;;;;;;5070176;28;20123;-82
2022/10/15 01:39:54;;;;;;;41.30;22.73;;;12.60;99.90;;;;;;5021052;28;20052;-82
2022/10/15 01:42:37;;;;;;;52.10;26.27;;;12.60;99.90;;;;;;5053246;28;20044;-82
2022/10/15 01:45:08;;;;;;;44.03;21.88;;;12.60;99.90;;;;;;5053319;28;20028;-82
2022/10/15 01:47:45;;;;;;;46.63;24.50;;;12.60;99.90;;;;;;5069986;28;20043;-81
2022/10/15 01:50:14;;;;;;;43.60;24.95;;;12.60;99.90;;;;;;5070183;28;20119;-81
2022/10/15 01:52:40;;;;;;;50.00;26.60;;;12.50;99.90;;;;;;5069641;28;20224;-82
2022/10/15 01:55:09;;;;;;;44.30;24.73;;;12.50;99.90;;;;;;5056196;28;20041;-82
2022/10/15 01:57:37;;;;;;;44.75;26.65;;;12.50;99.90;;;;;;5057316;28;20032;-82
2022/10/15 02:00:03;;;;;;;48.67;23.65;;;12.50;99.90;;;;;;5073629;28;20076;-81
2022/10/15 02:02:29;;;;;;;88.18;49.15;;;12.50;99.90;;;;;;5073153;28;20036;-82
2022/10/15 02:04:55;;;;;;;42.92;22.60;;;12.50;99.90;;;;;;5073646;28;20043;-82
2022/10/15 02:07:32;;;;;;;43.20;22.98;;;12.60;99.90;;;;;;5074666;28;20143;-82
2022/10/15 02:10:16;;;;;;;45.97;24.88;;;12.50;99.90;;;;;;5056732;28;20555;-81
2022/10/15 02:12:57;;;;;;;42.58;23.08;;;12.50;99.90;;;;;;5056555;28;20037;-82
2022/10/15 02:15:52;;;;;;;59.88;24.90;;;12.50;99.90;;;;;;5056609;28;20046;-81
2022/10/15 02:19:02;;;;;;;45.22;22.00;;;12.50;99.90;;;;;;5073466;28;20048;-81
2022/10/15 02:21:38;;;;;;;64.47;46.60;;;12.50;99.90;;;;;;5067994;28;20105;-82
2022/10/15 02:24:10;;;;;;;43.25;22.92;;;12.50;99.90;;;;;;5073281;28;20037;-82
2022/10/15 02:26:39;;;;;;;36.28;21.15;;;12.50;99.90;;;;;;5056546;28;20039;-82
2022/10/15 02:29:09;;;;;;;42.15;23.42;;;12.50;99.90;;;;;;5073179;28;20036;-82
2022/10/15 02:31:37;;;;;;;42.40;23.20;;;12.40;99.90;;;;;;5072995;28;20036;-81
2022/10/15 02:34:06;;;;;;;44.10;25.25;;;12.40;99.90;;;;;;5073149;28;20036;-82
2022/10/15 02:36:33;;;;;;;44.22;23.60;;;12.40;99.90;;;;;;5073190;28;20072;-82
2022/10/15 02:39:03;;;;;;;39.25;21.25;;;12.40;99.90;;;;;;5056222;28;20045;-81
2022/10/15 02:41:29;;;;;;;64.18;44.92;;;12.40;99.90;;;;;;5073102;28;20098;-82
2022/10/15 02:43:54;;;;;;;42.90;23.67;;;12.50;99.90;;;;;;5073110;28;20502;-82
2022/10/15 02:46:20;;;;;;;40.58;21.88;;;12.40;99.90;;;;;;5056166;28;20119;-82
2022/10/15 02:48:46;;;;;;;39.55;21.77;;;12.40;99.90;;;;;;5072709;28;20036;-82
2022/10/15 02:51:12;;;;;;;42.05;22.42;;;12.40;99.90;;;;;;5072572;28;20040;-82
2022/10/15 02:53:37;;;;;;;54.47;42.50;;;12.40;99.90;;;;;;5072879;28;20516;-81
2022/10/15 02:56:03;;;;;;;41.47;22.15;;;12.40;99.90;;;;;;5072670;28;20032;-81
2022/10/15 02:58:29;;;;;;;42.30;22.55;;;12.40;99.90;;;;;;5072675;28;20456;-82
2022/10/15 03:00:55;;;;;;;44.17;22.27;;;12.40;99.90;;;;;;5071964;28;20052;-81
2022/10/15 03:03:21;;;;;;;57.05;43.95;;;12.40;99.90;;;;;;5072472;28;20037;-81
2022/10/15 03:05:47;;;;;;;59.58;43.90;;;12.40;99.90;;;;;;5072028;28;20065;-81
2022/10/15 03:08:12;;;;;;;40.92;21.45;;;12.50;99.90;;;;;;5072582;28;20037;-82
2022/10/15 03:10:38;;;;;;;35.67;20.42;;;12.50;99.90;;;;;;5072259;28;20044;-82
2022/10/15 03:13:05;;;;;;;45.28;25.13;;;12.40;99.90;;;;;;5072074;28;20387;-81
2022/10/15 03:15:32;;;;;;;40.60;21.92;;;12.40;99.90;;;;;;5055620;28;20118;-81
2022/10/15 03:17:57;;;;;;;42.08;22.95;;;12.40;99.90;;;;;;5072039;28;20050;-81
2022/10/15 03:20:23;;;;;;;51.55;25.20;;;12.40;99.90;;;;;;5072156;28;20044;-81
2022/10/15 03:22:49;;;;;;;45.05;25.92;;;12.40;99.90;;;;;;5055110;28;20040;-82
2022/10/15 03:25:14;;;;;;;41.33;22.33;;;12.40;99.90;;;;;;5072093;28;20048;-82
2022/10/15 03:27:40;;;;;;;36.65;22.95;;;12.40;99.90;;;;;;5072048;28;20044;-82
2022/10/15 03:30:06;;;;;;;51.30;40.88;;;12.40;99.90;;;;;;5072130;28;20127;-82
2022/10/15 03:32:32;;;;;;;39.75;22.30;;;12.40;99.90;;;;;;5071814;28;20082;-83
2022/10/15 03:34:57;;;;;;;36.85;22.05;;;12.40;99.90;;;;;;5055193;28;20101;-83
2022/10/15 03:37:23;;;;;;;40.70;21.95;;;12.40;99.90;;;;;;5072097;28;20398;-83
2022/10/15 03:39:48;;;;;;;37.10;22.08;;;12.40;99.90;;;;;;5055061;28;20049;-83
2022/10/15 03:42:14;;;;;;;37.00;21.83;;;12.40;99.90;;;;;;5071511;28;20101;-83
2022/10/15 03:44:39;;;;;;;37.63;21.58;;;12.30;99.90;;;;;;5055063;28;20040;-83
2022/10/15 03:47:05;;;;;;;36.40;20.98;;;12.30;99.90;;;;;;5071518;28;20115;-83
2022/10/15 03:49:31;;;;;;;37.38;21.33;;;12.30;99.90;;;;;;5054912;28;20136;-82
2022/10/15 03:51:56;;;;;;;38.40;22.95;;;12.30;99.90;;;;;;5071157;28;20044;-82
2022/10/15 03:54:22;;;;;;;39.50;23.65;;;12.30;99.90;;;;;;5054928;28;20036;-81
2022/10/15 03:56:47;;;;;;;54.53;41.83;;;12.30;99.90;;;;;;5054744;28;20041;-82
2022/10/15 03:59:13;;;;;;;37.47;21.23;;;12.40;99.90;;;;;;5054849;28;20121;-81
2022/10/15 04:01:38;;;;;;;34.70;20.88;;;12.40;99.90;;;;;;5071008;28;20032;-81
2022/10/15 04:04:04;;;;;;;36.38;22.02;;;12.40;99.90;;;;;;5071222;28;20040;-82
2022/10/15 04:06:33;;;;;;;38.10;22.77;;;12.30;99.90;;;;;;5071306;28;20037;-81
2022/10/15 04:08:58;;;;;;;37.78;22.80;;;12.30;99.90;;;;;;5071098;28;20120;-82
2022/10/15 04:11:24;;;;;;;35.33;21.52;;;12.30;99.90;;;;;;5070856;28;20123;-82
2022/10/15 04:13:49;;;;;;;36.67;21.00;;;12.30;99.90;;;;;;5071364;28;20067;-82
2022/10/15 04:16:16;;;;;;;33.35;19.92;;;12.30;99.90;;;;;;5070391;28;20421;-82
2022/10/15 04:18:41;;;;;;;35.50;22.45;;;12.30;99.90;;;;;;5071282;28;20040;-81
2022/10/15 04:21:08;;;;;;;38.45;23.70;;;12.30;99.90;;;;;;5070527;28;20128;-81
2022/10/15 04:23:34;;;;;;;34.50;20.85;;;12.30;99.90;;;;;;5070928;28;20039;-81
2022/10/15 04:26:00;;;;;;;39.65;21.63;;;12.30;99.90;;;;;;5070885;28;20464;-82
2022/10/15 04:28:26;;;;;;;33.33;20.52;;;12.20;99.90;;;;;;5070890;28;20044;-81
2022/10/15 04:30:56;;;;;;;37.47;22.00;;;12.20;99.90;;;;;;5070841;28;20524;-81
2022/10/15 04:33:22;;;;;;;39.15;23.30;;;12.20;99.90;;;;;;5054085;28;20063;-81
2022/10/15 04:36:04;;;;;;;36.38;20.48;;;12.20;99.90;;;;;;5054369;28;20040;-81
2022/10/15 04:38:30;;;;;;;33.78;21.70;;;12.20;99.90;;;;;;5070689;28;20123;-81
2022/10/15 04:41:04;;;;;;;47.03;38.50;;;12.20;99.90;;;;;;5053626;28;20127;-81
2022/10/15 04:43:30;;;;;;;44.03;37.72;;;12.20;99.90;;;;;;5054063;28;20037;-81
2022/10/15 04:45:57;;;;;;;36.45;20.13;;;12.30;99.90;;;;;;5054322;28;20024;-81
2022/10/15 04:48:23;;;;;;;33.75;19.73;;;12.20;99.90;;;;;;5070877;28;20101;-81
2022/10/15 04:50:49;;;;;;;34.47;20.67;;;12.20;99.90;;;;;;5070368;28;20493;-81
2022/10/15 04:53:14;;;;;;;38.50;21.90;;;12.10;99.90;;;;;;5070343;28;20047;-81
2022/10/15 04:55:40;;;;;;;33.38;19.80;;;12.10;99.90;;;;;;5070793;28;20048;-81
2022/10/15 04:58:06;;;;;;;37.80;21.33;;;12.00;99.90;;;;;;5053652;28;20127;-81
2022/10/15 05:00:31;;;;;;;39.22;23.33;;;12.00;99.90;;;;;;5069621;28;20036;-82
2022/10/15 05:02:57;;;;;;;38.17;24.55;;;12.00;99.90;;;;;;5069973;28;20028;-81
2022/10/15 05:05:22;;;;;;;42.13;22.60;;;12.00;99.90;;;;;;5070461;28;20044;-81
2022/10/15 05:07:48;;;;;;;47.95;40.42;;;12.00;99.90;;;;;;5070403;28;20044;-81
2022/10/15 05:10:13;;;;;;;39.65;21.90;;;12.00;99.90;;;;;;5070381;28;20040;-81
2022/10/15 05:12:39;;;;;;;41.80;21.40;;;12.00;99.90;;;;;;5069472;28;20051;-81
2022/10/15 05:15:05;;;;;;;37.10;22.13;;;11.90;99.90;;;;;;5070335;28;20051;-81
2022/10/15 05:17:30;;;;;;;35.72;20.80;;;11.90;99.90;;;;;;5053579;28;20048;-81
2022/10/15 05:19:56;;;;;;;35.47;21.75;;;11.90;99.90;;;;;;5053456;28;20041;-81
2022/10/15 05:22:21;;;;;;;39.45;22.92;;;11.90;99.90;;;;;;5053456;28;20037;-81
2022/10/15 05:24:48;;;;;;;40.38;22.55;;;11.90;99.90;;;;;;5070147;28;20047;-81
2022/10/15 05:27:13;;;;;;;39.10;23.55;;;11.80;99.90;;;;;;5070025;28;20044;-81
2022/10/15 05:29:39;;;;;;;39.53;25.23;;;11.80;99.90;;;;;;5074283;28;20032;-81
2022/10/15 05:32:05;;;;;;;34.60;20.20;;;11.80;99.90;;;;;;5073978;28;20482;-81
2022/10/15 05:34:30;;;;;;;37.72;21.02;;;11.80;99.90;;;;;;5074261;28;20040;-81
2022/10/15 05:36:56;;;;;;;42.78;23.55;;;11.80;99.90;;;;;;5074116;28;20037;-81
2022/10/15 05:39:22;;;;;;;36.92;21.48;;;11.80;99.90;;;;;;5074332;28;20037;-81
2022/10/15 05:41:48;;;;;;;41.17;23.95;;;11.80;99.90;;;;;;5057177;28;20537;-82
2022/10/15 05:44:14;;;;;;;40.60;21.67;;;11.80;99.90;;;;;;5074161;28;20042;-81
2022/10/15 05:46:39;;;;;;;36.70;21.35;;;11.70;99.90;;;;;;5074193;28;20036;-81
2022/10/15 05:49:05;;;;;;;41.00;23.02;;;11.70;99.90;;;;;;5073983;28;20040;-82
2022/10/15 05:51:30;;;;;;;40.30;24.40;;;11.80;99.90;;;;;;5073762;28;20041;-81
2022/10/15 05:53:57;;;;;;;37.83;21.92;;;11.70;99.90;;;;;;5074087;28;20536;-81
2022/10/15 05:56:24;;;;;;;40.85;22.00;;;11.70;99.90;;;;;;5057281;28;20405;-81
2022/10/15 05:58:50;;;;;;;42.42;23.65;;;11.80;99.90;;;;;;5057018;28;20077;-81
2022/10/15 06:01:16;;;;;;;41.30;23.38;;;11.80;99.90;;;;;;5056602;28;20032;-81
2022/10/15 06:03:43;;;;;;;43.38;25.23;;;11.80;99.90;;;;;;5073589;28;20087;-81
2022/10/15 06:06:20;;;;;;;38.35;20.55;;;11.80;99.90;;;;;;5073656;28;20072;-82
2022/10/15 06:08:47;;;;;;;40.80;22.38;;;11.80;99.90;;;;;;5056782;28;20047;-82
2022/10/15 06:11:13;;;;;;;41.97;22.52;;;11.80;99.90;;;;;;5056589;28;20036;-82
2022/10/15 06:13:41;;;;;;;52.20;43.03;;;11.80;99.90;;;;;;5073494;28;20055;-82
2022/10/15 06:16:07;;;;;;;52.20;23.02;;;11.90;99.90;;;;;;5073225;28;20041;-82
2022/10/15 06:18:33;;;;;;;41.47;21.40;;;11.90;99.90;;;;;;5073742;28;20036;-82
2022/10/15 06:20:58;;;;;;;43.10;23.23;;;11.90;99.90;;;;;;5072086;28;20044;-81
2022/10/15 06:23:24;;;;;;;41.33;23.52;;;11.90;99.90;;;;;;5055534;28;20059;-82
2022/10/15 06:25:50;;;;;;;40.97;22.77;;;11.90;99.90;;;;;;5072618;28;20028;-82
2022/10/15 06:28:16;;;;;;;43.15;23.88;;;11.90;99.90;;;;;;5072596;28;20031;-81
2022/10/15 06:30:42;;;;;;;59.75;43.50;;;12.00;99.90;;;;;;5072764;28;20111;-82
2022/10/15 06:33:07;;;;;;;42.75;23.80;;;12.00;99.90;;;;;;5072893;28;20045;-82
2022/10/15 06:35:34;;;;;;;41.72;21.42;;;12.00;99.90;;;;;;5073099;28;20036;-82
2022/10/15 06:38:00;;;;;;;41.03;22.90;;;12.10;99.90;;;;;;5056129;28;20036;-82
2022/10/15 06:40:26;;;;;;;37.88;23.48;;;12.10;99.90;;;;;;5072192;28;20041;-82
2022/10/15 06:42:52;;;;;;;43.75;24.52;;;12.10;99.90;;;;;;5072743;28;20529;-81
2022/10/15 06:45:17;;;;;;;43.95;24.00;;;12.10;99.90;;;;;;5072881;28;20044;-81
2022/10/15 06:47:43;;;;;;;43.70;24.25;;;12.10;99.90;;;;;;5056183;28;20131;-82
2022/10/15 06:50:09;;;;;;;57.13;42.90;;;12.10;99.90;;;;;;5072703;28;20036;-81
2022/10/15 06:52:34;;;;;;;44.33;23.13;;;12.20;99.90;;;;;;5055838;28;20037;-81
2022/10/15 06:55:00;;;;;;;40.17;22.05;;;12.20;99.90;;;;;;5056188;28;20044;-81
2022/10/15 06:57:29;;;;;;;42.75;24.88;;;12.20;99.90;;;;;;5056053;28;20166;-81
2022/10/15 06:59:54;;;;;;;41.10;23.73;;;12.20;99.90;;;;;;5055513;28;20041;-82
2022/10/15 07:02:20;;;;;;;38.72;23.38;;;12.30;99.90;;;;;;5072187;28;20037;-82
2022/10/15 07:04:46;;;;;;;38.33;23.17;;;12.30;99.90;;;;;;5055563;28;20059;-82
2022/10/15 07:07:12;;;;;;;55.17;44.42;;;12.30;99.90;;;;;;5054757;28;20502;-82
2022/10/15 07:09:38;;;;;;;42.53;26.27;;;12.40;99.90;;;;;;5072248;28;20040;-82
2022/10/15 07:12:04;;;;;;;41.47;24.65;;;12.50;99.90;;;;;;5055538;28;20066;-82
2022/10/15 07:14:29;;;;;;;39.60;23.00;;;12.50;99.90;;;;;;5055659;28;20098;-82
2022/10/15 07:16:55;;;;;;;41.03;24.65;;;12.50;99.90;;;;;;5072297;28;20044;-82
2022/10/15 07:19:21;;;;;;;40.03;26.40;;;12.50;99.90;;;;;;5072321;28;20079;-82
2022/10/15 07:21:47;;;;;;;40.63;25.58;;;12.50;99.90;;;;;;5054965;28;20040;-82
2022/10/15 07:24:12;;;;;;;42.75;26.50;;;12.50;99.90;;;;;;5055362;28;20051;-82
2022/10/15 07:26:38;;;;;;;40.90;24.13;;;12.60;99.90;;;;;;5055750;28;20048;-82
2022/10/15 07:29:04;;;;;;;41.08;24.02;;;12.60;99.90;;;;;;5072318;28;20052;-82
2022/10/15 07:31:29;;;;;;;54.13;44.05;;;12.60;99.90;;;;;;5071599;28;20045;-82
2022/10/15 07:33:55;;;;;;;41.50;26.23;;;12.70;99.90;;;;;;5071878;28;20354;-82
2022/10/15 07:36:21;;;;;;;39.70;24.38;;;12.70;99.90;;;;;;5071778;28;20043;-82
2022/10/15 07:38:46;;;;;;;52.42;44.72;;;12.70;99.90;;;;;;5070897;28;20514;-82
2022/10/15 07:41:13;;;;;;;46.50;25.77;;;12.80;99.90;;;;;;5054613;28;20433;-82
2022/10/15 07:43:38;;;;;;;38.75;24.83;;;12.80;99.90;;;;;;5055284;28;20044;-82
2022/10/15 07:46:04;;;;;;;41.85;27.90;;;12.90;99.90;;;;;;5071747;28;20036;-82
2022/10/15 07:48:31;;;;;;;57.70;48.70;;;12.80;99.90;;;;;;5071585;28;20040;-82
2022/10/15 07:50:58;;;;;;;37.85;24.70;;;12.90;99.90;;;;;;5070566;28;20041;-82
2022/10/15 07:53:23;;;;;;;44.40;27.40;;;13.00;99.90;;;;;;5069991;28;20068;-82
2022/10/15 07:55:49;;;;;;;55.92;47.78;;;13.00;99.90;;;;;;5054401;28;20098;-82
2022/10/15 07:58:15;;;;;;;40.70;26.50;;;13.10;99.90;;;;;;5072175;28;20085;-82
2022/10/15 08:00:41;;;;;;;49.03;29.02;;;13.10;99.90;;;;;;5054032;28;20044;-82
2022/10/15 08:03:06;;;;;;;48.55;32.03;;;13.10;99.90;;;;;;5070713;28;20402;-82
2022/10/15 08:05:32;;;;;;;44.05;27.27;;;13.10;99.90;;;;;;5071400;28;20422;-82
2022/10/15 08:07:58;;;;;;;55.50;49.00;;;13.20;99.90;;;;;;5054394;28;20048;-82
2022/10/15 08:10:23;;;;;;;50.42;32.55;;;13.20;99.90;;;;;;5071229;28;20044;-82
2022/10/15 08:12:49;;;;;;;61.05;51.90;;;13.30;99.90;;;;;;5070597;28;20409;-82
2022/10/15 08:15:14;;;;;;;47.13;29.67;;;13.30;99.90;;;;;;5070633;28;20071;-82
2022/10/15 08:17:40;;;;;;;42.67;27.15;;;13.40;99.90;;;;;;5070698;28;20046;-82
2022/10/15 08:20:06;;;;;;;58.22;49.65;;;13.40;99.90;;;;;;5070833;28;20090;-82
2022/10/15 08:22:33;;;;;;;52.00;31.90;;;13.50;99.90;;;;;;5054141;28;20044;-82
2022/10/15 08:24:58;;;;;;;60.90;52.90;;;13.50;99.90;;;;;;5071018;28;20032;-82
2022/10/15 08:27:24;;;;;;;51.22;32.70;;;13.60;99.90;;;;;;5054081;28;20124;-82
2022/10/15 08:29:50;;;;;;;48.40;30.17;;;13.60;99.90;;;;;;5070393;28;20032;-82
2022/10/15 08:32:16;;;;;;;59.53;52.20;;;13.60;99.90;;;;;;5054022;28;20089;-82
2022/10/15 08:34:41;;;;;;;51.97;33.40;;;13.70;99.90;;;;;;5053986;28;20089;-82
2022/10/15 08:37:07;;;;;;;57.15;35.33;;;13.70;99.90;;;;;;5054123;28;20040;-82
2022/10/15 08:39:32;;;;;;;65.53;55.25;;;13.80;99.90;;;;;;5070567;28;20032;-82
2022/10/15 08:42:02;;;;;;;63.92;55.50;;;13.90;99.90;;;;;;5070497;28;20116;-82
2022/10/15 08:44:40;;;;;;;52.42;34.38;;;14.00;99.90;;;;;;5054115;28;20117;-82
2022/10/15 08:47:09;;;;;;;58.10;51.53;;;14.00;99.90;;;;;;5070563;28;20086;-82
2022/10/15 08:49:48;;;;;;;46.15;29.40;;;14.00;99.90;;;;;;5053958;28;20506;-82
2022/10/15 08:52:31;;;;;;;56.30;50.20;;;14.10;99.90;;;;;;5070132;28;20059;-82
2022/10/15 08:55:00;;;;;;;52.95;47.10;;;14.00;99.90;;;;;;5070607;28;20048;-82
2022/10/15 08:57:54;;;;;;;53.40;45.85;;;14.10;99.90;;;;;;5053233;28;20044;-82
2022/10/15 09:00:24;;;;;;;53.78;46.15;;;14.00;99.90;;;;;;5069630;28;20051;-82
2022/10/15 09:02:52;;;;;;;40.20;23.30;;;14.00;99.90;;;;;;5051518;28;20048;-82
2022/10/15 09:05:26;;;;;;;42.97;23.90;;;13.80;99.90;;;;;;5053982;28;20040;-82
2022/10/15 09:08:27;;;;;;;64.45;49.00;;;13.70;99.90;;;;;;5053193;28;20040;-82
2022/10/15 09:10:59;;;;;;;51.00;29.05;;;13.70;99.90;;;;;;5053707;28;20054;-82
2022/10/15 09:13:34;;;;;;;46.00;24.85;;;13.50;99.90;;;;;;5053758;28;20072;-82
2022/10/15 09:16:04;;;;;;;46.33;25.25;;;13.50;99.90;;;;;;5070359;28;20041;-82
2022/10/15 09:18:32;;;;;;;44.70;24.13;;;13.50;99.90;;;;;;5070475;28;20033;-82
2022/10/15 09:20:59;;;;;;;53.08;27.60;;;13.40;99.90;;;;;;5053070;28;20051;-82
2022/10/15 09:23:28;;;;;;;49.47;29.95;;;13.50;99.90;;;;;;5070257;28;20040;-81
2022/10/15 09:26:12;;;;;;;61.53;45.40;;;13.50;99.90;;;;;;5070189;28;20044;-84
2022/10/15 09:28:51;;;;;;;59.97;44.28;;;13.50;99.90;;;;;;5053553;28;20044;-82
2022/10/15 09:31:21;;;;;;;44.28;22.52;;;13.50;99.90;;;;;;5053447;28;20041;-82
2022/10/15 09:34:13;;;;;;;45.63;23.80;;;13.50;99.90;;;;;;5070299;28;20040;-82
2022/10/15 09:36:41;;;;;;;45.15;23.88;;;13.50;99.90;;;;;;5070093;28;20048;-82
2022/10/15 09:39:29;;;;;;;49.15;25.77;;;13.40;99.90;;;;;;5070069;28;20086;-82
2022/10/15 09:42:33;;;;;;;46.75;24.83;;;13.40;99.90;;;;;;5069716;28;20047;-82
2022/10/15 09:45:05;;;;;;;44.35;24.48;;;13.50;99.90;;;;;;5070231;28;20127;-82
2022/10/15 09:47:33;;;;;;;43.60;22.20;;;13.50;99.90;;;;;;5052820;28;20044;-81
2022/10/15 09:49:58;;;;;;;59.58;44.83;;;13.50;99.90;;;;;;5052564;28;20059;-82
2022/10/15 09:52:59;;;;;;;61.28;45.42;;;13.60;99.90;;;;;;5069151;28;20037;-81
2022/10/15 09:55:36;;;;;;;43.88;25.10;;;13.60;99.90;;;;;;5050255;28;20042;-82
2022/10/15 09:58:25;;;;;;;60.30;43.10;;;13.60;99.90;;;;;;5052254;28;20111;-82
2022/10/15 10:00:53;;;;;;;41.33;22.95;;;13.60;99.90;;;;;;5052019;28;20074;-82
2022/10/15 10:03:22;;;;;;;46.03;22.67;;;13.70;99.90;;;;;;5069466;28;20107;-82
2022/10/15 10:05:48;;;;;;;48.67;38.10;;;13.70;99.90;;;;;;5052563;28;20520;-82
2022/10/15 10:08:23;;;;;;;38.55;21.23;;;13.70;99.90;;;;;;5068540;28;20494;-81
2022/10/15 10:10:56;;;;;;;34.90;20.15;;;13.80;99.90;;;;;;5069575;28;20040;-82
2022/10/15 10:13:24;;;;;;;45.88;37.80;;;13.80;99.90;;;;;;5069821;28;20048;-82
2022/10/15 10:15:52;;;;;;;39.80;22.75;;;13.90;99.90;;;;;;5071905;28;20413;-82
2022/10/15 10:18:20;;;;;;;44.65;35.67;;;14.00;99.90;;;;;;5056761;28;20040;-82
2022/10/15 10:20:58;;;;;;;30.25;18.17;;;14.10;99.90;;;;;;5072743;28;20477;-82
2022/10/15 10:23:36;;;;;;;39.92;34.92;;;14.10;99.90;;;;;;5071158;28;20036;-82
2022/10/15 10:26:05;;;;;;;40.40;33.42;;;14.20;99.90;;;;;;5071150;28;20028;-82
2022/10/15 10:28:55;;;;;;;30.63;18.13;;;14.30;99.90;;;;;;5072688;28;20570;-82
2022/10/15 10:31:38;;;;;;;32.05;19.02;;;14.40;99.90;;;;;;5044020;28;20032;-82
2022/10/15 10:34:04;;;;;;;35.83;30.45;;;14.40;99.90;;;;;;5071078;28;20036;-82
2022/10/15 10:36:33;;;;;;;30.52;20.38;;;14.50;99.90;;;;;;5072527;28;20028;-82
2022/10/15 10:39:25;;;;;;;33.78;21.80;;;14.50;99.90;;;;;;5053772;28;20127;-82
2022/10/15 10:41:54;;;;;;;33.22;29.55;;;14.60;99.90;;;;;;5071452;28;20044;-82
2022/10/15 10:44:36;;;;;;;29.75;19.00;;;14.70;99.90;;;;;;5055839;28;20029;-82
2022/10/15 10:47:22;;;;;;;27.40;16.45;;;14.70;99.90;;;;;;5070019;28;20028;-82
2022/10/15 10:49:53;;;;;;;31.90;28.50;;;14.80;99.90;;;;;;5072211;28;20526;-82
2022/10/15 10:52:25;;;;;;;29.55;26.40;;;14.80;99.90;;;;;;5052799;28;20044;-82
2022/10/15 10:55:23;;;;;;;29.58;17.02;;;14.90;99.90;;;;;;5073826;28;20085;-82
2022/10/15 10:58:00;;;;;;;28.45;25.45;;;15.00;99.90;;;;;;5070427;28;20124;-82
2022/10/15 11:00:42;;;;;;;27.15;24.33;;;15.10;99.90;;;;;;5070120;28;20047;-82
2022/10/15 11:03:30;;;;;;;21.95;15.90;;;15.10;99.90;;;;;;5052779;28;20032;-82
2022/10/15 11:06:09;;;;;;;24.60;22.00;;;15.10;99.90;;;;;;5070672;28;20565;-82
2022/10/15 11:08:50;;;;;;;23.83;21.23;;;15.10;99.90;;;;;;5070605;28;20037;-82
2022/10/15 11:11:39;;;;;;;23.75;21.27;;;15.10;99.90;;;;;;5053656;28;20044;-82
2022/10/15 11:14:29;;;;;;;23.92;21.48;;;15.10;99.90;;;;;;5055370;28;20430;-82
2022/10/15 11:17:03;;;;;;;24.83;15.10;;;15.00;99.90;;;;;;5053795;28;20444;-82
2022/10/15 11:19:55;;;;;;;25.42;22.73;;;15.00;99.90;;;;;;5069251;28;20114;-82
2022/10/15 11:22:47;;;;;;;24.05;15.60;;;15.00;99.90;;;;;;5070834;28;20064;-82
2022/10/15 11:25:29;;;;;;;25.05;22.38;;;15.00;99.90;;;;;;5038943;28;20036;-82
2022/10/15 11:28:18;;;;;;;24.88;22.23;;;15.10;99.90;;;;;;5070311;28;20111;-82
2022/10/15 11:31:09;;;;;;;22.70;14.63;;;15.10;99.90;;;;;;5040571;28;20043;-82
2022/10/15 11:34:02;;;;;;;24.25;21.50;;;15.10;99.90;;;;;;5069192;28;20420;-82
2022/10/15 11:36:40;;;;;;;20.73;14.85;;;15.20;99.90;;;;;;5052641;28;20038;-82
2022/10/15 11:39:24;;;;;;;22.88;20.40;;;15.20;99.90;;;;;;5067728;28;20036;-82
2022/10/15 11:42:17;;;;;;;21.23;13.27;;;15.20;99.90;;;;;;5069666;28;20040;-82
2022/10/15 11:45:20;;;;;;;21.20;18.85;;;15.20;99.90;;;;;;5055075;28;20110;-82
2022/10/15 11:47:51;;;;;;;17.90;10.88;;;15.20;99.90;;;;;;5071647;28;20048;-82
2022/10/15 11:50:46;;;;;;;20.80;18.13;;;15.20;99.90;;;;;;5071291;28;20044;-82
2022/10/15 11:53:37;;;;;;;21.17;18.30;;;15.30;99.90;;;;;;5065646;28;20583;-82
2022/10/15 11:56:31;;;;;;;18.02;12.65;;;15.40;99.90;;;;;;5071757;28;20489;-82
2022/10/15 11:59:28;;;;;;;20.85;18.38;;;15.40;99.90;;;;;;5044180;28;20049;-82
2022/10/15 12:02:05;;;;;;;19.67;13.27;;;15.50;99.90;;;;;;5070991;28;20086;-82
2022/10/15 12:04:42;;;;;;;19.92;17.83;;;15.50;99.90;;;;;;5071726;28;20044;-82
2022/10/15 12:07:16;;;;;;;21.25;18.95;;;15.60;99.90;;;;;;5071513;28;20542;-82
2022/10/15 12:09:47;;;;;;;24.50;15.43;;;15.70;99.90;;;;;;5054225;28;20502;-82
2022/10/15 12:12:38;;;;;;;21.35;19.05;;;15.60;99.90;;;;;;5054328;28;20041;-82
2022/10/15 12:15:33;;;;;;;22.45;18.73;;;15.60;99.90;;;;;;5054195;28;20048;-82
2022/10/15 12:18:20;;;;;;;21.50;18.55;;;15.60;99.90;;;;;;5054100;28;20041;-82
2022/10/15 12:20:46;;;;;;;17.80;13.75;;;15.70;99.90;;;;;;5070750;28;20048;-82
2022/10/15 12:23:33;;;;;;;22.95;20.13;;;15.60;99.90;;;;;;5070906;28;20085;-82
2022/10/15 12:25:58;;;;;;;21.90;19.52;;;15.70;99.90;;;;;;5071182;28;20513;-82
2022/10/15 12:28:27;;;;;;;23.90;20.67;;;15.60;99.90;;;;;;5054213;28;20028;-82
2022/10/15 12:31:01;;;;;;;21.55;13.93;;;15.70;99.90;;;;;;5070510;28;20093;-82
2022/10/15 12:33:37;;;;;;;24.67;21.85;;;15.60;99.90;;;;;;5070793;28;20044;-82
2022/10/15 12:36:23;;;;;;;26.85;22.00;;;15.60;99.90;;;;;;5054031;28;20040;-82
2022/10/15 12:39:01;;;;;;;21.52;15.30;;;15.70;99.90;;;;;;5070090;28;20048;-82
2022/10/15 12:41:42;;;;;;;25.08;22.05;;;15.60;99.90;;;;;;5070170;28;20041;-82
2022/10/15 12:44:24;;;;;;;27.23;23.85;;;15.60;99.90;;;;;;5070759;28;20491;-82
2022/10/15 12:46:49;;;;;;;23.80;15.98;;;15.60;99.90;;;;;;5053971;28;20040;-82
2022/10/15 12:49:31;;;;;;;26.70;23.35;;;15.60;99.90;;;;;;5070923;28;20115;-82